Main page
METAR-TAF:

METAR-TAF

Airports :

Kerry Airport

Killarney, Ireland

latitude: 52-10-51N, longitude: 9-31-26W, elevation: 34 m

Current weather observation

The report was made 17 minutes ago, at 11:00 UTC
Wind 6 kt from the West, varying between West/Southwest and Northwest
Temperature 16°C
Humidity 77%
Pressure 1026 hPa
Visibility 10 km or more
Broken clouds at a height of 3500 ft

METAR: EIKY 121100Z 27006KT 240V320 9999 BKN035 16/12 Q1026

Time: 12:17 (11:17 UTC)

Forecast

The report was made 3 hours and 17 minutes ago, at 08:00 UTC
Forecast valid from 12 at 09 UTC to 12 at 18 UTC
Wind 9 kt from the West
Visibility 10 km or more
Few clouds at a height of 1500 ft
Broken clouds at a height of 2500 ft

TAF: EIKY 120800Z 1209/1218 26009KT 9999 FEW015 BKN025

Weather observations and forecasts of more than 4000 airports (METAR and TAF reports).

The available stations are represented by yellow and red dots on the map.

Hover mouse over dot to see the name of the station.

Then click to see weather observations and forecasts.

To change the map : click on the green buttons with a black cross to zoom in, on the green button with a dash to zoom out, or on the green arrows for adjacent maps.


METAR-TAF: